createdAt,value
2018-09-24T00:01:32.375Z,8.90
2018-09-24T00:07:14.701Z,8.90
2018-09-24T00:09:43.467Z,8.80
2018-09-24T00:12:11.853Z,8.70
2018-09-24T00:20:30.221Z,8.60
2018-09-24T00:22:58.822Z,8.60
2018-09-24T00:25:27.287Z,8.50
2018-09-24T00:27:57.175Z,8.50
2018-09-24T00:30:26.327Z,8.40
2018-09-24T00:32:55.051Z,8.30
2018-09-24T00:35:25.063Z,8.30
2018-09-24T00:37:56.757Z,8.30
2018-09-24T00:40:27.813Z,8.20
2018-09-24T00:43:02.048Z,8.20
2018-09-24T00:45:32.264Z,8.20
2018-09-24T00:48:02.512Z,8.20
2018-09-24T00:50:34.804Z,8.10
2018-09-24T00:53:23.339Z,8.10
2018-09-24T00:55:53.715Z,8.00
2018-09-24T00:58:24.864Z,8.00
2018-09-24T01:00:57.804Z,8.00
2018-09-24T01:03:37.603Z,8.00
2018-09-24T01:06:06.624Z,7.90
2018-09-24T01:08:36.747Z,7.90
2018-09-24T01:11:06.884Z,7.90
2018-09-24T01:19:26.417Z,7.70
2018-09-24T01:21:54.549Z,7.70
2018-09-24T01:24:29.490Z,7.70
2018-09-24T01:26:59.014Z,7.70
2018-09-24T01:29:27.192Z,7.60
2018-09-24T01:31:56.534Z,7.60
2018-09-24T01:40:13.035Z,7.50
2018-09-24T01:42:45.987Z,7.50
2018-09-24T01:48:25.299Z,7.50
2018-09-24T01:50:53.670Z,7.50
2018-09-24T01:53:35.144Z,7.60
2018-09-24T01:56:03.226Z,7.70
2018-09-24T01:58:36.215Z,7.70
2018-09-24T02:01:06.092Z,7.80
2018-09-24T02:03:45.477Z,7.80
2018-09-24T02:06:18.047Z,7.90
2018-09-24T02:08:49.967Z,7.90
2018-09-24T02:11:19.878Z,7.90
2018-09-24T02:13:51.812Z,7.90
2018-09-24T02:16:21.712Z,7.90
2018-09-24T02:18:51.108Z,7.80
2018-09-24T02:21:20.778Z,7.70
2018-09-24T02:24:07.893Z,7.70
2018-09-24T02:26:38.350Z,7.70
2018-09-24T02:29:08.451Z,7.70
2018-09-24T02:31:41.843Z,7.70
2018-09-24T02:37:22.396Z,7.70
2018-09-24T02:39:50.745Z,7.70
2018-09-24T02:42:23.514Z,7.70
2018-09-24T02:45:00.401Z,7.70
2018-09-24T02:47:31.789Z,7.60
2018-09-24T02:50:01.807Z,7.70
2018-09-24T02:52:31.183Z,7.70
2018-09-24T02:57:54.860Z,7.70
2018-09-24T03:00:25.153Z,7.70
2018-09-24T03:02:54.777Z,7.70
2018-09-24T03:05:23.214Z,7.70
2018-09-24T03:07:51.505Z,7.70
2018-09-24T03:10:21.745Z,7.90
2018-09-24T03:12:52.294Z,7.80
2018-09-24T03:15:21.181Z,7.90
2018-09-24T03:17:49.284Z,8.00
2018-09-24T03:20:18.809Z,8.00
2018-09-24T03:22:47.148Z,8.00
2018-09-24T03:34:19.442Z,7.90
2018-09-24T03:36:49.806Z,8.00
2018-09-24T03:39:19.772Z,8.00
2018-09-24T03:41:51.171Z,8.00
2018-09-24T04:01:42.006Z,7.80
2018-09-24T04:04:28.621Z,7.70
2018-09-24T04:07:02.453Z,7.70
2018-09-24T04:09:38.988Z,7.60
2018-09-24T04:15:23.084Z,7.60
2018-09-24T04:17:56.887Z,7.30
2018-09-24T04:20:30.742Z,7.20
2018-09-24T04:23:21.631Z,7.20
2018-09-24T04:25:59.580Z,7.20
2018-09-24T04:28:34.279Z,7.10
2018-09-24T04:31:08.122Z,7.20
2018-09-24T04:36:51.804Z,7.20
2018-09-24T04:39:27.059Z,7.20
2018-09-24T04:42:05.276Z,7.20
2018-09-24T04:44:47.685Z,7.20
2018-09-24T04:47:23.161Z,7.20
2018-09-24T04:50:03.441Z,7.20
2018-09-24T04:52:38.808Z,7.20
2018-09-24T05:12:39.334Z,7.20
2018-09-24T05:15:20.103Z,7.20
2018-09-24T05:17:54.017Z,7.20
2018-09-24T05:20:28.888Z,7.20
2018-09-24T05:23:02.723Z,7.20
2018-09-24T05:25:37.751Z,7.30
2018-09-24T05:28:17.028Z,7.40
2018-09-24T05:30:52.999Z,7.40
2018-09-24T05:33:45.512Z,7.40
2018-09-24T05:36:19.509Z,7.50
2018-09-24T05:38:52.911Z,7.50
2018-09-24T05:41:26.327Z,7.60
2018-09-24T05:44:11.166Z,7.60
2018-09-24T05:46:44.558Z,7.60
2018-09-24T05:49:18.071Z,7.50
2018-09-24T05:51:51.626Z,7.30
2018-09-24T05:54:26.245Z,7.30
2018-09-24T05:57:00.359Z,7.40
2018-09-24T05:59:33.714Z,7.40
2018-09-24T06:02:07.333Z,7.50
2018-09-24T06:04:47.591Z,7.60
2018-09-24T06:07:21.722Z,7.70
2018-09-24T06:09:55.137Z,7.70
2018-09-24T06:12:28.446Z,7.80
2018-09-24T06:15:07.460Z,7.90
2018-09-24T06:17:41.098Z,8.00
2018-09-24T06:20:14.556Z,8.10
2018-09-24T06:22:48.107Z,8.10
2018-09-24T06:25:21.595Z,8.20
2018-09-24T06:27:55.319Z,8.30
2018-09-24T06:30:29.520Z,8.30
2018-09-24T06:33:02.883Z,8.40
2018-09-24T06:35:36.416Z,8.50
2018-09-24T06:38:10.807Z,8.60
2018-09-24T06:43:38.080Z,8.60
2018-09-24T06:46:12.193Z,8.70
2018-09-24T06:48:45.741Z,8.80
2018-09-24T06:51:19.324Z,8.90
2018-09-24T06:54:09.414Z,9.00
2018-09-24T06:56:42.975Z,9.10
2018-09-24T06:59:16.584Z,9.20
2018-09-24T07:01:50.163Z,9.30
2018-09-24T07:04:29.803Z,9.30
2018-09-24T07:07:03.632Z,9.30
2018-09-24T07:09:37.072Z,9.30
2018-09-24T07:12:10.521Z,9.30
2018-09-24T07:14:57.931Z,9.40
2018-09-24T07:17:31.536Z,9.40
2018-09-24T07:20:04.899Z,9.40
2018-09-24T07:22:38.357Z,9.60
2018-09-24T07:25:21.800Z,9.70
2018-09-24T07:27:55.182Z,9.70
2018-09-24T07:30:28.682Z,9.80
2018-09-24T07:39:07.155Z,9.70
2018-09-24T07:41:40.614Z,9.70
2018-09-24T08:01:30.715Z,10.70
2018-09-24T08:10:03.043Z,11.50
2018-09-24T08:12:36.535Z,11.60
2018-09-24T08:18:20.685Z,11.70
2018-09-24T08:20:54.250Z,11.60
2018-09-24T08:26:35.779Z,11.50
2018-09-24T08:29:09.146Z,11.50
2018-09-24T08:31:43.535Z,11.50
2018-09-24T08:37:21.250Z,11.80
2018-09-24T08:39:54.754Z,12.00
2018-09-24T08:42:28.393Z,12.20
2018-09-24T08:45:08.829Z,12.10
2018-09-24T08:47:42.325Z,12.20
2018-09-24T08:50:15.750Z,12.40
2018-09-24T08:52:49.137Z,12.50
2018-09-24T09:01:16.466Z,12.80
2018-09-24T09:03:56.055Z,13.00
2018-09-24T09:06:29.513Z,13.20
2018-09-24T09:09:03.214Z,13.30
2018-09-24T09:11:36.686Z,13.40
2018-09-24T09:16:51.157Z,13.50
2018-09-24T09:19:24.739Z,13.40
2018-09-24T09:22:02.678Z,13.30
2018-09-24T09:24:53.655Z,13.50
2018-09-24T09:27:27.138Z,13.50
2018-09-24T09:30:00.601Z,13.30
2018-09-24T09:32:34.147Z,13.20
2018-09-24T09:35:15.486Z,13.10
2018-09-24T09:37:49.239Z,13.10
2018-09-24T09:40:23.654Z,13.00
2018-09-24T09:42:57.008Z,13.00
2018-09-24T09:45:30.511Z,13.00
2018-09-24T09:48:03.929Z,13.00
2018-09-24T09:50:37.557Z,12.90
2018-09-24T09:53:17.132Z,12.90
2018-09-24T09:55:50.699Z,13.00
2018-09-24T09:58:25.151Z,13.10
2018-09-24T10:00:59.113Z,13.20
2018-09-24T10:03:42.202Z,13.30
2018-09-24T10:06:15.826Z,13.30
2018-09-24T10:08:49.723Z,13.20
2018-09-24T10:11:23.260Z,13.20
2018-09-24T10:14:00.247Z,13.30
2018-09-24T10:16:33.744Z,13.40
2018-09-24T10:19:07.157Z,13.50
2018-09-24T10:21:40.579Z,13.80
2018-09-24T10:24:13.988Z,14.20
2018-09-24T10:26:48.383Z,14.00
2018-09-24T10:29:21.808Z,13.90
2018-09-24T10:31:55.194Z,13.80
2018-09-24T10:34:34.776Z,13.80
2018-09-24T10:37:08.337Z,13.70
2018-09-24T10:39:41.904Z,13.80
2018-09-24T10:42:15.554Z,13.80
2018-09-24T10:44:51.154Z,13.80
2018-09-24T10:47:24.609Z,13.90
2018-09-24T10:49:58.238Z,13.80
2018-09-24T10:52:31.599Z,13.80
2018-09-24T10:55:22.899Z,13.80
2018-09-24T10:57:56.333Z,13.70
2018-09-24T11:00:29.806Z,13.70
2018-09-24T11:03:05.481Z,13.70
2018-09-24T11:05:38.858Z,13.60
2018-09-24T11:08:12.243Z,13.60
2018-09-24T11:10:46.164Z,13.50
2018-09-24T11:13:26.260Z,13.40
2018-09-24T11:15:59.943Z,13.20
2018-09-24T11:18:33.321Z,13.10
2018-09-24T11:21:06.898Z,13.00
2018-09-24T11:23:53.485Z,12.80
2018-09-24T11:26:34.002Z,12.70
2018-09-24T11:29:00.718Z,12.50
2018-09-24T11:31:34.155Z,12.50
2018-09-24T11:34:16.213Z,12.60
2018-09-24T11:36:49.793Z,12.60
2018-09-24T11:39:23.162Z,12.60
2018-09-24T11:41:56.841Z,12.60
2018-09-24T11:44:39.157Z,12.70
2018-09-24T11:47:13.069Z,12.80
2018-09-24T11:49:46.386Z,12.80
2018-09-24T11:52:19.673Z,13.00
2018-09-24T11:54:52.993Z,13.20
2018-09-24T11:57:26.503Z,13.30
2018-09-24T12:00:00.072Z,13.40
2018-09-24T12:02:33.790Z,13.40
2018-09-24T12:05:20.865Z,13.40
2018-09-24T12:07:54.258Z,13.30
2018-09-24T12:10:27.957Z,13.40
2018-09-24T12:13:04.898Z,13.40
2018-09-24T12:15:38.389Z,13.60
2018-09-24T12:18:11.969Z,13.80
2018-09-24T12:20:45.247Z,14.30
2018-09-24T12:23:26.345Z,14.70
2018-09-24T12:26:00.750Z,15.10
2018-09-24T12:28:34.152Z,15.40
2018-09-24T12:31:07.425Z,15.40
2018-09-24T12:33:47.081Z,15.30
2018-09-24T12:36:20.469Z,15.30
2018-09-24T12:38:54.369Z,15.30
2018-09-24T12:41:36.161Z,15.40
2018-09-24T12:46:50.136Z,15.40
2018-09-24T12:49:24.764Z,15.50
2018-09-24T12:51:58.068Z,15.20
2018-09-24T12:54:47.760Z,15.10
2018-09-24T12:57:21.959Z,14.90
2018-09-24T12:59:56.607Z,14.70
2018-09-24T13:02:29.916Z,14.70
2018-09-24T13:05:07.214Z,14.70
2018-09-24T13:07:40.637Z,14.60
2018-09-24T13:10:14.136Z,14.60
2018-09-24T13:12:47.842Z,14.50
2018-09-24T13:15:23.162Z,14.60
2018-09-24T13:17:57.118Z,14.50
2018-09-24T13:20:30.696Z,14.50
2018-09-24T13:23:04.222Z,14.60
2018-09-24T13:25:37.588Z,14.70
2018-09-24T13:28:11.076Z,15.10
2018-09-24T13:30:44.414Z,15.10
2018-09-24T13:33:19.890Z,15.30
2018-09-24T13:35:53.311Z,15.20
2018-09-24T13:38:27.611Z,14.90
2018-09-24T13:41:06.199Z,14.90
2018-09-24T13:43:39.622Z,14.70
2018-09-24T13:46:12.989Z,14.50
2018-09-24T13:48:46.303Z,14.40
2018-09-24T13:51:19.593Z,14.10
2018-09-24T13:53:56.504Z,14.20
2018-09-24T13:56:29.826Z,14.20
2018-09-24T13:59:03.718Z,14.10
2018-09-24T14:01:37.247Z,14.20
2018-09-24T14:04:11.734Z,14.40
2018-09-24T14:06:45.685Z,14.40
2018-09-24T14:09:19.194Z,14.60
2018-09-24T14:11:52.701Z,15.00
2018-09-24T14:14:27.090Z,15.20
2018-09-24T14:17:00.661Z,15.30
2018-09-24T14:19:34.092Z,15.20
2018-09-24T14:22:08.115Z,15.10
2018-09-24T14:24:41.704Z,15.00
2018-09-24T14:27:15.989Z,14.90
2018-09-24T14:29:49.530Z,14.70
2018-09-24T14:32:22.991Z,14.80
2018-09-24T14:35:02.574Z,14.90
2018-09-24T14:37:36.161Z,15.00
2018-09-24T14:40:09.867Z,15.10
2018-09-24T14:42:43.444Z,14.80
2018-09-24T14:45:20.058Z,14.90
2018-09-24T14:47:53.478Z,15.00
2018-09-24T14:50:26.950Z,14.80
2018-09-24T14:53:00.630Z,14.80
2018-09-24T14:55:34.253Z,14.70
2018-09-24T14:58:07.805Z,14.80
2018-09-24T15:00:41.178Z,14.80
2018-09-24T15:03:20.221Z,14.80
2018-09-24T15:05:53.584Z,14.90
2018-09-24T15:08:27.028Z,14.90
2018-09-24T15:11:00.326Z,14.90
2018-09-24T15:13:33.869Z,15.00
2018-09-24T15:16:07.593Z,15.40
2018-09-24T15:18:41.101Z,15.70
2018-09-24T15:21:14.565Z,15.50
2018-09-24T15:23:48.102Z,15.40
2018-09-24T15:26:21.688Z,15.10
2018-09-24T15:28:55.271Z,14.70
2018-09-24T15:31:28.646Z,14.50
2018-09-24T15:34:02.169Z,14.40
2018-09-24T15:36:35.695Z,14.50
2018-09-24T15:39:10.090Z,14.60
2018-09-24T15:41:43.514Z,14.80
2018-09-24T15:44:19.141Z,15.00
2018-09-24T15:46:52.784Z,15.00
2018-09-24T15:49:26.261Z,15.10
2018-09-24T15:51:59.650Z,15.00
2018-09-24T15:54:33.150Z,15.00
2018-09-24T15:59:57.442Z,14.90
2018-09-24T16:06:06.767Z,14.80
2018-09-24T16:08:49.162Z,14.90
2018-09-24T16:11:22.994Z,14.90
2018-09-24T16:14:03.596Z,14.80
2018-09-24T16:16:37.180Z,14.90
2018-09-24T16:19:11.236Z,14.90
2018-09-24T16:21:44.685Z,14.90
2018-09-24T16:24:24.334Z,15.00
2018-09-24T16:26:58.284Z,14.90
2018-09-24T16:29:32.274Z,14.80
2018-09-24T16:32:05.995Z,14.70
2018-09-24T16:34:44.879Z,14.60
2018-09-24T16:37:18.463Z,14.60
2018-09-24T16:39:51.964Z,14.50
2018-09-24T16:42:25.406Z,14.40
2018-09-24T16:45:01.589Z,14.30
2018-09-24T16:47:35.383Z,14.20
2018-09-24T16:50:09.111Z,14.10
2018-09-24T16:52:42.672Z,14.00
2018-09-24T16:55:16.368Z,13.90
2018-09-24T16:57:50.015Z,13.90
2018-09-24T17:00:32.355Z,13.80
2018-09-24T17:03:11.283Z,13.70
2018-09-24T17:05:45.746Z,13.60
2018-09-24T17:08:43.683Z,13.50
2018-09-24T17:11:26.792Z,13.40
2018-09-24T17:14:05.990Z,13.20
2018-09-24T17:16:41.218Z,13.20
2018-09-24T17:19:16.296Z,13.00
2018-09-24T17:21:50.042Z,12.80
2018-09-24T17:24:33.864Z,12.80
2018-09-24T17:27:07.737Z,12.70
2018-09-24T17:29:44.021Z,12.50
2018-09-24T17:32:17.593Z,12.40
2018-09-24T17:34:55.881Z,12.20
2018-09-24T17:37:29.427Z,12.00
2018-09-24T17:40:03.106Z,11.90
2018-09-24T17:42:38.670Z,11.70
2018-09-24T17:45:26.025Z,11.60
2018-09-24T17:50:45.656Z,11.30
2018-09-24T17:53:24.396Z,11.20
2018-09-24T17:55:58.055Z,11.20
2018-09-24T17:58:32.069Z,11.00
2018-09-24T18:01:05.723Z,10.90
2018-09-24T18:03:41.919Z,10.80
2018-09-24T18:06:16.529Z,10.70
2018-09-24T18:08:50.261Z,10.60
2018-09-24T18:11:25.056Z,10.50
2018-09-24T18:13:58.735Z,10.40
2018-09-24T18:16:32.457Z,10.30
2018-09-24T18:19:06.955Z,10.20
2018-09-24T18:21:41.440Z,10.10
2018-09-24T18:24:19.179Z,10.00
2018-09-24T18:26:52.764Z,9.90
2018-09-24T18:29:26.601Z,9.80
2018-09-24T18:32:00.308Z,9.70
2018-09-24T18:34:33.947Z,9.70
2018-09-24T18:37:07.668Z,9.60
2018-09-24T18:39:42.515Z,9.50
2018-09-24T18:42:16.165Z,9.40
2018-09-24T18:44:49.714Z,9.40
2018-09-24T18:47:23.403Z,9.40
2018-09-24T18:49:57.647Z,9.30
2018-09-24T18:52:31.355Z,9.30
2018-09-24T18:55:06.681Z,9.30
2018-09-24T18:57:40.403Z,9.20
2018-09-24T19:00:13.896Z,9.10
2018-09-24T19:02:47.574Z,9.10
2018-09-24T19:05:24.993Z,9.00
2018-09-24T19:07:58.723Z,9.00
2018-09-24T19:10:32.582Z,8.90
2018-09-24T19:13:08.568Z,8.80
2018-09-24T19:15:42.467Z,8.80
2018-09-24T19:18:16.222Z,8.80
2018-09-24T19:20:49.895Z,8.70
2018-09-24T19:23:27.066Z,8.70
2018-09-24T19:26:00.760Z,8.60
2018-09-24T19:28:34.420Z,8.60
2018-09-24T19:31:09.871Z,8.50
2018-09-24T19:33:43.722Z,8.50
2018-09-24T19:36:19.965Z,8.50
2018-09-24T19:38:54.443Z,8.50
2018-09-24T19:41:29.011Z,8.50
2018-09-24T19:44:02.995Z,8.50
2018-09-24T19:46:37.367Z,8.60
2018-09-24T19:49:11.065Z,8.50
2018-09-24T19:51:45.028Z,8.50
2018-09-24T19:54:21.004Z,8.40
2018-09-24T19:56:54.895Z,8.50
2018-09-24T19:59:29.392Z,8.40
2018-09-24T20:02:03.092Z,8.30
2018-09-24T20:04:40.197Z,8.30
2018-09-24T20:07:14.164Z,8.30
2018-09-24T20:09:50.101Z,8.20
2018-09-24T20:12:23.951Z,8.20
2018-09-24T20:14:57.921Z,8.20
2018-09-24T20:17:32.685Z,8.20
2018-09-24T20:20:06.689Z,8.10
2018-09-24T20:22:41.270Z,8.20
2018-09-24T20:25:15.446Z,8.10
2018-09-24T20:27:49.580Z,8.20
2018-09-24T20:30:23.398Z,8.10
2018-09-24T20:32:57.553Z,8.10
2018-09-24T20:35:31.579Z,8.00
2018-09-24T20:38:05.363Z,7.90
2018-09-24T20:40:39.504Z,7.90
2018-09-24T20:43:13.519Z,7.80
2018-09-24T20:45:47.449Z,7.80
2018-09-24T20:48:21.428Z,7.70
2018-09-24T20:50:56.016Z,7.70
2018-09-24T20:53:29.790Z,7.70
2018-09-24T20:56:03.766Z,7.60
2018-09-24T20:58:37.763Z,7.60
2018-09-24T21:01:12.409Z,7.60
2018-09-24T21:03:50.187Z,7.60
2018-09-24T21:06:25.055Z,7.50
2018-09-24T21:08:58.904Z,7.50
2018-09-24T21:11:35.102Z,7.50
2018-09-24T21:14:09.020Z,7.50
2018-09-24T21:16:43.410Z,7.50
2018-09-24T21:19:17.305Z,7.50
2018-09-24T21:21:51.486Z,7.50
2018-09-24T21:24:28.469Z,7.40
2018-09-24T21:27:02.717Z,7.50
2018-09-24T21:29:36.495Z,7.40
2018-09-24T21:32:10.688Z,7.40
2018-09-24T21:34:48.975Z,7.40
2018-09-24T21:37:23.297Z,7.30
2018-09-24T21:39:57.186Z,7.30
2018-09-24T21:42:31.821Z,7.30
2018-09-24T21:45:11.689Z,7.30
2018-09-24T21:47:45.652Z,7.30
2018-09-24T21:50:19.721Z,7.30
2018-09-24T21:52:53.830Z,7.20
2018-09-24T21:55:27.551Z,7.20
2018-09-24T21:58:02.067Z,7.20
2018-09-24T22:00:36.091Z,7.20
2018-09-24T22:03:09.814Z,7.20
2018-09-24T22:05:43.852Z,7.20
2018-09-24T22:08:17.995Z,7.20
2018-09-24T22:10:52.120Z,7.20
2018-09-24T22:13:26.136Z,7.10
2018-09-24T22:16:00.288Z,7.10
2018-09-24T22:18:34.426Z,7.00
2018-09-24T22:21:08.596Z,7.00
2018-09-24T22:23:42.415Z,7.10
2018-09-24T22:26:16.247Z,7.00
2018-09-24T22:28:50.029Z,7.00
2018-09-24T22:31:23.748Z,7.00
2018-09-24T22:34:00.766Z,7.00
2018-09-24T22:36:34.638Z,7.00
2018-09-24T22:39:10.436Z,7.10
2018-09-24T22:41:44.137Z,7.00
2018-09-24T22:44:34.800Z,6.90
2018-09-24T22:47:08.679Z,6.90
2018-09-24T22:49:43.250Z,6.90
2018-09-24T22:52:16.953Z,6.80
2018-09-24T22:54:55.317Z,6.80
2018-09-24T22:57:28.800Z,6.80
2018-09-24T23:00:02.477Z,6.80
2018-09-24T23:02:36.305Z,6.80
2018-09-24T23:05:21.123Z,6.80
2018-09-24T23:07:54.624Z,6.80
2018-09-24T23:10:28.348Z,6.70
2018-09-24T23:13:02.209Z,6.70
2018-09-24T23:15:36.232Z,6.70
2018-09-24T23:18:09.994Z,6.60
2018-09-24T23:20:43.802Z,6.60
2018-09-24T23:23:21.742Z,6.60
2018-09-24T23:25:55.636Z,6.50
2018-09-24T23:28:29.286Z,6.50
2018-09-24T23:31:03.413Z,6.40
2018-09-24T23:33:41.409Z,6.40
2018-09-24T23:36:15.176Z,6.40
2018-09-24T23:38:48.805Z,6.40
2018-09-24T23:41:22.365Z,6.40
2018-09-24T23:43:59.165Z,6.40
2018-09-24T23:46:32.828Z,6.40
2018-09-24T23:49:06.608Z,6.30
2018-09-24T23:51:41.000Z,6.30
2018-09-24T23:54:14.776Z,6.30
2018-09-24T23:56:48.681Z,6.20
2018-09-24T23:59:22.415Z,6.30
